Doyle Atmospheric Data: 04/08/2021 Summary  Detailed Graphs  Station List

  Temperature     Wind Precipitation Visibility
Timestamp Air Wet
Bulb
Dew-
point
24-hr
Max
24-hr
Min
Relative
Humidity
Atmospheric
Pressure
Avg
Speed
Avg
Dir
Spot
Speed
Spot
Dir
Max
Speed
Max
Dir
  Rate Situation Start End 1 hr 3 hr 6 hr 12 hr 24 hr   Situation
Date Time °F °F °F °F °F % in Hg mph ° mph ° mph ° Y/N in/hr text Date Time Date Time in in in in in mi text
04/08/2021 12:04 AM 43.70 33.44 12.38 66.74 32.18 27.0 Not Reported 5.37 S 8.72 SE 9.40 SW No 0.000 No Precipitation 03/23/2021 12:14 AM 03/23/2021 12:25 AM 0.000 0.000 0.000 0.000 0.000 Not Reported Not Reported
04/08/2021 12:09 AM 42.80 32.90 12.92 66.74 32.18 28.0 Not Reported 7.16 S 6.26 SE 8.72 SE No 0.000 No Precipitation 03/23/2021 12:14 AM 03/23/2021 12:25 AM 0.000 0.000 0.000 0.000 0.000 Not Reported Not Reported
04/08/2021 12:14 AM 43.16 33.26 13.46 66.74 32.18 29.0 Not Reported 6.93 SE 6.71 SE 9.62 SE No 0.000 No Precipitation 03/23/2021 12:14 AM 03/23/2021 12:25 AM 0.000 0.000 0.000 0.000 0.000 Not Reported Not Reported
04/08/2021 12:19 AM 42.98 33.44 13.46 66.74 32.18 29.0 Not Reported 6.71 S 8.72 SE 10.07 SE No 0.000 No Precipitation 03/23/2021 12:14 AM 03/23/2021 12:25 AM 0.000 0.000 0.000 0.000 0.000 Not Reported Not Reported
04/08/2021 12:24 AM 45.14 34.34 13.82 66.74 32.18 27.0 Not Reported 7.16 SE 5.82 SW 11.41 E No 0.000 No Precipitation 03/23/2021 12:14 AM 03/23/2021 12:25 AM 0.000 0.000 0.000 0.000 0.000 Not Reported Not Reported
04/08/2021 12:29 AM 43.16 33.44 14.00 66.74 32.18 29.0 Not Reported 7.16 S 6.26 SE 11.41 E No 0.000 No Precipitation 03/23/2021 12:14 AM 03/23/2021 12:25 AM 0.000 0.000 0.000 0.000 0.000 Not Reported Not Reported
04/08/2021 12:34 AM 42.44 32.72 14.18 66.74 32.18 31.0 Not Reported 5.37 S 6.26 S 9.84 S No 0.000 No Precipitation 03/23/2021 12:14 AM 03/23/2021 12:25 AM 0.000 0.000 0.000 0.000 0.000 Not Reported Not Reported
04/08/2021 12:39 AM 41.72 32.36 14.54 66.74 32.18 32.0 Not Reported 6.71 SE 6.49 SE 9.84 S No 0.000 No Precipitation 03/23/2021 12:14 AM 03/23/2021 12:25 AM 0.000 0.000 0.000 0.000 0.000 Not Reported Not Reported
04/08/2021 12:44 AM 41.54 32.54 14.54 66.74 32.18 32.0 Not Reported 5.14 SE 4.92 SE 7.83 SE No 0.000 No Precipitation 03/23/2021 12:14 AM 03/23/2021 12:25 AM 0.000 0.000 0.000 0.000 0.000 Not Reported Not Reported
04/08/2021 12:49 AM 41.00 32.36 14.54 66.74 32.18 33.0 Not Reported 4.47 S 6.04 S 6.71 SE No 0.000 No Precipitation 03/23/2021 12:14 AM 03/23/2021 12:25 AM 0.000 0.000 0.000 0.000 0.000 Not Reported Not Reported
04/08/2021 12:54 AM 42.98 33.62 14.90 66.74 32.18 31.0 Not Reported 7.38 E 1.34 SE 8.50 E No 0.000 No Precipitation 03/23/2021 12:14 AM 03/23/2021 12:25 AM 0.000 0.000 0.000 0.000 0.000 Not Reported Not Reported
04/08/2021 12:59 AM 42.26 33.08 14.90 66.74 32.18 31.0 Not Reported 7.38 SW 7.38 S 9.17 S No 0.000 No Precipitation 03/23/2021 12:14 AM 03/23/2021 12:25 AM 0.000 0.000 0.000 0.000 0.000 Not Reported Not Reported
04/08/2021 01:04 AM 42.98 33.62 14.72 66.74 32.18 31.0 Not Reported 4.03 SE 4.70 SE 9.17 S No 0.000 No Precipitation 03/23/2021 12:14 AM 03/23/2021 12:25 AM 0.000 0.000 0.000 0.000 0.000 Not Reported Not Reported
04/08/2021 01:09 AM 42.08 32.90 15.08 66.74 32.18 32.0 Not Reported 6.71 S 5.14 SE 8.28 S No 0.000 No Precipitation 03/23/2021 12:14 AM 03/23/2021 12:25 AM 0.000 0.000 0.000 0.000 0.000 Not Reported Not Reported
04/08/2021 01:14 AM 41.36 32.36 15.08 66.74 32.18 33.0 Not Reported 6.04 SE 6.93 SW 8.28 S No 0.000 No Precipitation 03/23/2021 12:14 AM 03/23/2021 12:25 AM 0.000 0.000 0.000 0.000 0.000 Not Reported Not Reported
04/08/2021 01:19 AM 42.98 33.62 15.62 66.74 32.18 32.0 Not Reported 9.40 S 7.38 S 9.84 SE No 0.000 No Precipitation 03/23/2021 12:14 AM 03/23/2021 12:25 AM 0.000 0.000 0.000 0.000 0.000 Not Reported Not Reported
04/08/2021 01:24 AM 44.60 34.16 15.26 66.74 32.18 30.0 Not Reported 8.72 SE 8.28 SE 10.74 SE No 0.000 No Precipitation 03/23/2021 12:14 AM 03/23/2021 12:25 AM 0.000 0.000 0.000 0.000 0.000 Not Reported Not Reported
04/08/2021 01:29 AM 41.00 32.18 14.72 66.74 32.18 33.0 Not Reported 6.04 S 7.61 S 10.74 SE No 0.000 No Precipitation 03/23/2021 12:14 AM 03/23/2021 12:25 AM 0.000 0.000 0.000 0.000 0.000 Not Reported Not Reported
04/08/2021 01:39 AM 42.98 33.26 14.90 66.74 32.18 31.0 Not Reported 5.59 S 2.68 S 8.72 SE No 0.000 No Precipitation 03/23/2021 12:14 AM 03/23/2021 12:25 AM 0.000 0.000 0.000 0.000 0.000 Not Reported Not Reported
04/08/2021 01:44 AM 42.80 33.26 14.72 66.74 32.18 31.0 Not Reported 3.80 SE 5.59 S 7.38 S No 0.000 No Precipitation 03/23/2021 12:14 AM 03/23/2021 12:25 AM 0.000 0.000 0.000 0.000 0.000 Not Reported Not Reported
04/08/2021 01:49 AM 43.88 33.98 14.54 66.74 32.18 29.0 Not Reported 6.26 S 10.96 SE 8.72 S No 0.000 No Precipitation 03/23/2021 12:14 AM 03/23/2021 12:25 AM 0.000 0.000 0.000 0.000 0.000 Not Reported Not Reported
04/08/2021 01:54 AM 42.80 33.62 14.72 66.74 32.18 30.0 Not Reported 8.28 SE 7.83 SE 10.96 SE No 0.000 No Precipitation 03/23/2021 12:14 AM 03/23/2021 12:25 AM 0.000 0.000 0.000 0.000 0.000 Not Reported Not Reported
04/08/2021 01:59 AM 41.90 32.54 14.72 66.74 32.18 32.0 Not Reported 4.92 S 6.04 S 10.96 SE No 0.000 No Precipitation 03/23/2021 12:14 AM 03/23/2021 12:25 AM 0.000 0.000 0.000 0.000 0.000 Not Reported Not Reported
04/08/2021 02:04 AM 42.26 33.08 14.72 66.74 32.18 32.0 Not Reported 6.26 SE 6.49 S 7.16 S No 0.000 No Precipitation 03/23/2021 12:14 AM 03/23/2021 12:25 AM 0.000 0.000 0.000 0.000 0.000 Not Reported Not Reported
04/08/2021 02:09 AM 41.54 32.54 14.54 66.74 32.18 32.0 Not Reported 5.59 SE 7.61 SE 7.16 S No 0.000 No Precipitation 03/23/2021 12:14 AM 03/23/2021 12:25 AM 0.000 0.000 0.000 0.000 0.000 Not Reported Not Reported
04/08/2021 02:14 AM 41.54 32.18 14.90 66.74 32.18 33.0 Not Reported 6.93 SE 7.61 S 8.95 SE No 0.000 No Precipitation 03/23/2021 12:14 AM 03/23/2021 12:25 AM 0.000 0.000 0.000 0.000 0.000 Not Reported Not Reported
04/08/2021 02:19 AM 39.56 31.82 14.54 66.74 32.18 35.0 Not Reported 6.49 S 6.04 S 8.95 SE No 0.000 No Precipitation 03/23/2021 12:14 AM 03/23/2021 12:25 AM 0.000 0.000 0.000 0.000 0.000 Not Reported Not Reported
04/08/2021 02:24 AM 41.18 32.18 14.90 66.74 32.18 34.0 Not Reported 6.93 SE 5.37 S 7.38 S No 0.000 No Precipitation 03/23/2021 12:14 AM 03/23/2021 12:25 AM 0.000 0.000 0.000 0.000 0.000 Not Reported Not Reported
04/08/2021 02:29 AM 39.74 31.64 15.08 66.74 32.18 35.0 Not Reported 6.04 S 6.93 S 7.16 SE No 0.000 No Precipitation 03/23/2021 12:14 AM 03/23/2021 12:25 AM 0.000 0.000 0.000 0.000 0.000 Not Reported Not Reported
04/08/2021 02:34 AM 41.72 32.72 14.54 66.74 32.18 32.0 Not Reported 6.26 S 6.71 S 8.05 SE No 0.000 No Precipitation 03/23/2021 12:14 AM 03/23/2021 12:25 AM 0.000 0.000 0.000 0.000 0.000 Not Reported Not Reported
04/08/2021 02:39 AM 40.64 32.00 14.36 66.74 32.18 33.0 Not Reported 6.04 SW 6.71 S 8.28 S No 0.000 No Precipitation 03/23/2021 12:14 AM 03/23/2021 12:25 AM 0.000 0.000 0.000 0.000 0.000 Not Reported Not Reported
04/08/2021 02:44 AM 39.74 31.28 14.72 66.74 32.18 35.0 Not Reported 6.49 S 7.83 S 8.28 S No 0.000 No Precipitation 03/23/2021 12:14 AM 03/23/2021 12:25 AM 0.000 0.000 0.000 0.000 0.000 Not Reported Not Reported
04/08/2021 02:49 AM 38.30 30.74 14.72 66.74 32.18 37.0 Not Reported 5.82 S 4.03 S 7.83 S No 0.000 No Precipitation 03/23/2021 12:14 AM 03/23/2021 12:25 AM 0.000 0.000 0.000 0.000 0.000 Not Reported Not Reported
04/08/2021 02:54 AM 39.74 31.64 14.36 66.74 32.18 34.0 Not Reported 2.91 S 1.57 S 6.93 S No 0.000 No Precipitation 03/23/2021 12:14 AM 03/23/2021 12:25 AM 0.000 0.000 0.000 0.000 0.000 Not Reported Not Reported
04/08/2021 02:59 AM 39.02 31.28 14.00 66.74 32.18 35.0 Not Reported 1.34 S 3.13 SW 4.03 S No 0.000 No Precipitation 03/23/2021 12:14 AM 03/23/2021 12:25 AM 0.000 0.000 0.000 0.000 0.000 Not Reported Not Reported
04/08/2021 03:04 AM 39.38 31.28 14.00 66.74 32.18 34.0 Not Reported 1.34 SE 2.46 SE 3.13 SW No 0.000 No Precipitation 03/23/2021 12:14 AM 03/23/2021 12:25 AM 0.000 0.000 0.000 0.000 0.000 Not Reported Not Reported
04/08/2021 03:09 AM 38.12 30.56 14.18 66.74 32.18 37.0 Not Reported 2.01 SE 2.24 SE 2.91 SE No 0.000 No Precipitation 03/23/2021 12:14 AM 03/23/2021 12:25 AM 0.000 0.000 0.000 0.000 0.000 Not Reported Not Reported
04/08/2021 03:14 AM 36.32 29.30 15.26 66.74 32.18 40.0 Not Reported 2.68 S 3.13 SW 3.36 SE No 0.000 No Precipitation 03/23/2021 12:14 AM 03/23/2021 12:25 AM 0.000 0.000 0.000 0.000 0.000 Not Reported Not Reported
04/08/2021 03:19 AM 35.60 29.12 14.90 66.74 32.18 41.0 Not Reported 1.79 S 2.24 S 3.36 SE No 0.000 No Precipitation 03/23/2021 12:14 AM 03/23/2021 12:25 AM 0.000 0.000 0.000 0.000 0.000 Not Reported Not Reported
04/08/2021 03:24 AM 34.88 28.76 14.72 66.74 32.18 43.0 Not Reported 2.24 S 2.01 S 3.13 SW No 0.000 No Precipitation 03/23/2021 12:14 AM 03/23/2021 12:25 AM 0.000 0.000 0.000 0.000 0.000 Not Reported Not Reported
04/08/2021 03:29 AM 33.80 27.86 14.72 66.74 32.18 44.0 Not Reported 1.79 S 2.46 S 3.13 S No 0.000 No Precipitation 03/23/2021 12:14 AM 03/23/2021 12:25 AM 0.000 0.000 0.000 0.000 0.000 Not Reported Not Reported
04/08/2021 03:34 AM 32.72 27.32 15.08 66.74 32.18 47.0 Not Reported 0.89 W 1.34 NE 2.46 S No 0.000 No Precipitation 03/23/2021 12:14 AM 03/23/2021 12:25 AM 0.000 0.000 0.000 0.000 0.000 Not Reported Not Reported
04/08/2021 03:39 AM 32.36 27.32 15.62 66.74 32.18 49.0 Not Reported 2.91 NE 2.46 E 3.58 NE No 0.000 No Precipitation 03/23/2021 12:14 AM 03/23/2021 12:25 AM 0.000 0.000 0.000 0.000 0.000 Not Reported Not Reported
04/08/2021 03:44 AM 32.72 26.96 14.36 66.74 32.18 46.0 Not Reported 4.47 E 6.26 E 6.71 E No 0.000 No Precipitation 03/23/2021 12:14 AM 03/23/2021 12:25 AM 0.000 0.000 0.000 0.000 0.000 Not Reported Not Reported
04/08/2021 03:49 AM 31.10 26.24 14.54 66.74 30.92 49.0 Not Reported 3.36 E 4.03 E 6.71 E No 0.000 No Precipitation 03/23/2021 12:14 AM 03/23/2021 12:25 AM 0.000 0.000 0.000 0.000 0.000 Not Reported Not Reported
04/08/2021 03:54 AM 30.92 26.06 14.54 66.74 30.74 50.0 Not Reported 5.14 SE 4.70 SE 5.82 E No 0.000 No Precipitation 03/23/2021 12:14 AM 03/23/2021 12:25 AM 0.000 0.000 0.000 0.000 0.000 Not Reported Not Reported
04/08/2021 03:59 AM 31.64 25.88 13.82 66.74 30.74 47.0 Not Reported 6.49 SE 3.58 S 6.93 SE No 0.000 No Precipitation 03/23/2021 12:14 AM 03/23/2021 12:25 AM 0.000 0.000 0.000 0.000 0.000 Not Reported Not Reported
04/08/2021 04:04 AM 29.48 25.34 14.90 66.74 29.30 54.0 Not Reported 6.49 S 6.71 SE 7.38 S No 0.000 No Precipitation 03/23/2021 12:14 AM 03/23/2021 12:25 AM 0.000 0.000 0.000 0.000 0.000 Not Reported Not Reported
04/08/2021 04:09 AM 29.66 24.98 14.90 66.74 29.30 54.0 Not Reported 5.37 SE 6.71 S 7.38 S No 0.000 No Precipitation 03/23/2021 12:14 AM 03/23/2021 12:25 AM 0.000 0.000 0.000 0.000 0.000 Not Reported Not Reported
04/08/2021 04:14 AM 31.10 26.06 15.62 66.74 29.12 52.0 Not Reported 7.38 S 7.83 SE 7.83 SE No 0.000 No Precipitation 03/23/2021 12:14 AM 03/23/2021 12:25 AM 0.000 0.000 0.000 0.000 0.000 Not Reported Not Reported
04/08/2021 04:19 AM 31.82 26.78 15.08 66.74 29.12 50.0 Not Reported 7.16 SE 2.68 SE 8.50 SE No 0.000 No Precipitation 03/23/2021 12:14 AM 03/23/2021 12:25 AM 0.000 0.000 0.000 0.000 0.000 Not Reported Not Reported
04/08/2021 04:24 AM 29.84 25.34 14.36 66.74 29.12 51.0 Not Reported 6.04 S 6.26 SE 8.50 SE No 0.000 No Precipitation 03/23/2021 12:14 AM 03/23/2021 12:25 AM 0.000 0.000 0.000 0.000 0.000 Not Reported Not Reported
04/08/2021 04:29 AM 29.48 25.16 14.72 66.74 29.12 53.0 Not Reported 6.04 S 5.82 S 6.26 SE No 0.000 No Precipitation 03/23/2021 12:14 AM 03/23/2021 12:25 AM 0.000 0.000 0.000 0.000 0.000 Not Reported Not Reported
04/08/2021 04:34 AM 29.48 25.52 15.80 66.74 29.12 55.0 Not Reported 7.16 S 6.49 S 8.50 SW No 0.000 No Precipitation 03/23/2021 12:14 AM 03/23/2021 12:25 AM 0.000 0.000 0.000 0.000 0.000 Not Reported Not Reported
04/08/2021 04:39 AM 30.20 25.88 15.62 66.74 29.12 54.0 Not Reported 5.14 S 8.28 SW 8.50 SW No 0.000 No Precipitation 03/23/2021 12:14 AM 03/23/2021 12:25 AM 0.000 0.000 0.000 0.000 0.000 Not Reported Not Reported
04/08/2021 04:44 AM 32.36 27.86 16.34 66.74 29.12 50.0 Not Reported 6.71 S 6.93 S 9.62 SW No 0.000 No Precipitation 03/23/2021 12:14 AM 03/23/2021 12:25 AM 0.000 0.000 0.000 0.000 0.000 Not Reported Not Reported
04/08/2021 04:49 AM 32.00 27.14 16.34 66.74 29.12 51.0 Not Reported 6.71 S 6.49 SW 9.62 SW No 0.000 No Precipitation 03/23/2021 12:14 AM 03/23/2021 12:25 AM 0.000 0.000 0.000 0.000 0.000 Not Reported Not Reported
04/08/2021 04:54 AM 31.28 26.24 15.44 66.74 29.12 52.0 Not Reported 6.26 S 6.04 S 7.61 SW No 0.000 No Precipitation 03/23/2021 12:14 AM 03/23/2021 12:25 AM 0.000 0.000 0.000 0.000 0.000 Not Reported Not Reported
04/08/2021 04:59 AM 30.92 26.24 15.98 66.74 29.12 53.0 Not Reported 6.49 S 6.26 SW 7.16 S No 0.000 No Precipitation 03/23/2021 12:14 AM 03/23/2021 12:25 AM 0.000 0.000 0.000 0.000 0.000 Not Reported Not Reported
04/08/2021 05:04 AM 33.26 27.50 15.62 66.74 29.12 48.0 Not Reported 5.59 SE 3.13 S 7.16 S No 0.000 No Precipitation 03/23/2021 12:14 AM 03/23/2021 12:25 AM 0.000 0.000 0.000 0.000 0.000 Not Reported Not Reported
04/08/2021 05:09 AM 29.66 24.98 13.82 66.74 29.12 52.0 Not Reported 2.01 E 3.58 E 7.16 SE No 0.000 No Precipitation 03/23/2021 12:14 AM 03/23/2021 12:25 AM 0.000 0.000 0.000 0.000 0.000 Not Reported Not Reported
04/08/2021 05:14 AM 28.76 24.44 14.18 66.74 28.76 54.0 Not Reported 6.49 E 6.93 E 7.61 E No 0.000 No Precipitation 03/23/2021 12:14 AM 03/23/2021 12:25 AM 0.000 0.000 0.000 0.000 0.000 Not Reported Not Reported
04/08/2021 05:19 AM 28.22 24.44 15.08 66.74 28.22 56.0 Not Reported 2.91 S 3.13 SE 7.61 E No 0.000 No Precipitation 03/23/2021 12:14 AM 03/23/2021 12:25 AM 0.000 0.000 0.000 0.000 0.000 Not Reported Not Reported
04/08/2021 05:24 AM 28.94 24.62 14.90 66.74 28.22 54.0 Not Reported 4.70 SE 5.37 SE 6.26 E No 0.000 No Precipitation 03/23/2021 12:14 AM 03/23/2021 12:25 AM 0.000 0.000 0.000 0.000 0.000 Not Reported Not Reported
04/08/2021 05:29 AM 27.86 23.54 14.00 66.74 27.68 55.0 Not Reported 5.14 SE 4.92 S 5.59 SE No 0.000 No Precipitation 03/23/2021 12:14 AM 03/23/2021 12:25 AM 0.000 0.000 0.000 0.000 0.000 Not Reported Not Reported
04/08/2021 05:34 AM 26.96 23.54 15.26 66.74 26.60 60.0 Not Reported 7.16 S 8.28 S 8.28 S No 0.000 No Precipitation 03/23/2021 12:14 AM 03/23/2021 12:25 AM 0.000 0.000 0.000 0.000 0.000 Not Reported Not Reported
04/08/2021 05:39 AM 28.76 24.98 15.98 66.74 26.60 57.0 Not Reported 8.28 S 6.71 S 9.17 S No 0.000 No Precipitation 03/23/2021 12:14 AM 03/23/2021 12:25 AM 0.000 0.000 0.000 0.000 0.000 Not Reported Not Reported
04/08/2021 05:44 AM 30.20 25.70 15.26 66.74 26.60 53.0 Not Reported 9.40 S 8.50 S 9.84 S No 0.000 No Precipitation 03/23/2021 12:14 AM 03/23/2021 12:25 AM 0.000 0.000 0.000 0.000 0.000 Not Reported Not Reported
04/08/2021 05:49 AM 30.38 25.52 15.44 66.74 26.60 53.0 Not Reported 8.95 S 9.62 SW 9.84 S No 0.000 No Precipitation 03/23/2021 12:14 AM 03/23/2021 12:25 AM 0.000 0.000 0.000 0.000 0.000 Not Reported Not Reported
04/08/2021 05:54 AM 32.00 27.14 16.16 66.74 26.60 51.0 Not Reported 8.72 SW 8.28 S 10.74 SW No 0.000 No Precipitation 03/23/2021 12:14 AM 03/23/2021 12:25 AM 0.000 0.000 0.000 0.000 0.000 Not Reported Not Reported
04/08/2021 05:59 AM 32.72 27.68 15.98 66.74 26.60 48.0 Not Reported 8.28 S 6.93 SW 10.74 SW No 0.000 No Precipitation 03/23/2021 12:14 AM 03/23/2021 12:25 AM 0.000 0.000 0.000 0.000 0.000 Not Reported Not Reported
04/08/2021 06:04 AM 33.98 28.40 15.08 66.74 26.60 43.0 Not Reported 8.28 SW 8.28 S 8.72 S No 0.000 No Precipitation 03/23/2021 12:14 AM 03/23/2021 12:25 AM 0.000 0.000 0.000 0.000 0.000 Not Reported Not Reported
04/08/2021 06:09 AM 37.40 30.20 13.64 66.74 26.60 37.0 Not Reported 7.38 SE 4.47 S 9.17 S No 0.000 No Precipitation 03/23/2021 12:14 AM 03/23/2021 12:25 AM 0.000 0.000 0.000 0.000 0.000 Not Reported Not Reported
04/08/2021 06:14 AM 36.14 29.48 13.64 66.74 26.60 38.0 Not Reported 6.26 S 5.82 S 9.17 S No 0.000 No Precipitation 03/23/2021 12:14 AM 03/23/2021 12:25 AM 0.000 0.000 0.000 0.000 0.000 Not Reported Not Reported
04/08/2021 06:19 AM 33.62 27.68 14.36 66.74 26.60 44.0 Not Reported 3.58 S 5.37 SE 8.28 S No 0.000 No Precipitation 03/23/2021 12:14 AM 03/23/2021 12:25 AM 0.000 0.000 0.000 0.000 0.000 Not Reported Not Reported
04/08/2021 06:24 AM 33.62 27.68 14.54 66.74 26.60 44.0 Not Reported 6.04 S 5.37 S 6.93 S No 0.000 No Precipitation 03/23/2021 12:14 AM 03/23/2021 12:25 AM 0.000 0.000 0.000 0.000 0.000 Not Reported Not Reported
04/08/2021 06:29 AM 35.06 28.58 14.54 66.74 26.60 42.0 Not Reported 5.37 S 6.04 S 6.93 S No 0.000 No Precipitation 03/23/2021 12:14 AM 03/23/2021 12:25 AM 0.000 0.000 0.000 0.000 0.000 Not Reported Not Reported
04/08/2021 06:34 AM 31.10 26.06 14.54 66.74 26.60 50.0 Not Reported 5.37 SE 6.04 S 6.93 S No 0.000 No Precipitation 03/23/2021 12:14 AM 03/23/2021 12:25 AM 0.000 0.000 0.000 0.000 0.000 Not Reported Not Reported
04/08/2021 06:39 AM 29.30 25.16 15.98 66.74 26.60 56.0 Not Reported 9.17 S 7.61 S 10.29 S No 0.000 No Precipitation 03/23/2021 12:14 AM 03/23/2021 12:25 AM 0.000 0.000 0.000 0.000 0.000 Not Reported Not Reported
04/08/2021 06:44 AM 31.10 26.42 16.16 66.74 26.60 53.0 Not Reported 6.93 S 8.72 S 10.29 S No 0.000 No Precipitation 03/23/2021 12:14 AM 03/23/2021 12:25 AM 0.000 0.000 0.000 0.000 0.000 Not Reported Not Reported
04/08/2021 06:49 AM 31.64 26.78 16.52 66.74 26.60 52.0 Not Reported 8.05 S 7.83 S 8.95 S No 0.000 No Precipitation 03/23/2021 12:14 AM 03/23/2021 12:25 AM 0.000 0.000 0.000 0.000 0.000 Not Reported Not Reported
04/08/2021 06:54 AM 32.36 27.50 16.34 66.74 26.60 50.0 Not Reported 7.61 S 6.93 S 8.50 S No 0.000 No Precipitation 03/23/2021 12:14 AM 03/23/2021 12:25 AM 0.000 0.000 0.000 0.000 0.000 Not Reported Not Reported
04/08/2021 06:59 AM 33.08 28.04 16.34 66.74 26.60 49.0 Not Reported 7.83 S 7.61 S 8.72 S No 0.000 No Precipitation 03/23/2021 12:14 AM 03/23/2021 12:25 AM 0.000 0.000 0.000 0.000 0.000 Not Reported Not Reported
04/08/2021 07:04 AM 32.00 27.32 17.60 66.74 26.60 55.0 Not Reported 6.71 S 8.50 SW 8.72 SW No 0.000 No Precipitation 03/23/2021 12:14 AM 03/23/2021 12:25 AM 0.000 0.000 0.000 0.000 0.000 Not Reported Not Reported
04/08/2021 07:09 AM 33.80 28.76 16.52 66.74 26.60 47.0 Not Reported 7.83 SW 5.82 S 8.72 SW No 0.000 No Precipitation 03/23/2021 12:14 AM 03/23/2021 12:25 AM 0.000 0.000 0.000 0.000 0.000 Not Reported Not Reported
04/08/2021 07:14 AM 36.14 30.02 16.88 66.74 26.60 44.0 Not Reported 6.26 S 4.70 SW 8.05 SW No 0.000 No Precipitation 03/23/2021 12:14 AM 03/23/2021 12:25 AM 0.000 0.000 0.000 0.000 0.000 Not Reported Not Reported
04/08/2021 07:19 AM 36.50 30.20 16.88 66.74 26.60 43.0 Not Reported 3.36 S 4.70 S 7.16 S No 0.000 No Precipitation 03/23/2021 12:14 AM 03/23/2021 12:25 AM 0.000 0.000 0.000 0.000 0.000 Not Reported Not Reported
04/08/2021 07:24 AM 37.76 30.92 16.34 66.74 26.60 41.0 Not Reported 4.70 S 4.47 SE 5.59 SE No 0.000 No Precipitation 03/23/2021 12:14 AM 03/23/2021 12:25 AM 0.000 0.000 0.000 0.000 0.000 Not Reported Not Reported
04/08/2021 07:29 AM 38.84 31.10 15.26 66.74 26.60 37.0 Not Reported 4.92 SE 4.92 S 6.04 SE No 0.000 No Precipitation 03/23/2021 12:14 AM 03/23/2021 12:25 AM 0.000 0.000 0.000 0.000 0.000 Not Reported Not Reported
04/08/2021 07:34 AM 39.20 31.46 15.62 66.74 26.60 37.0 Not Reported 5.37 S 5.59 S 6.26 S No 0.000 No Precipitation 03/23/2021 12:14 AM 03/23/2021 12:25 AM 0.000 0.000 0.000 0.000 0.000 Not Reported Not Reported
04/08/2021 07:39 AM 39.02 31.10 15.26 66.74 26.60 36.0 Not Reported 6.93 SE 7.61 SE 7.61 SE No 0.000 No Precipitation 03/23/2021 12:14 AM 03/23/2021 12:25 AM 0.000 0.000 0.000 0.000 0.000 Not Reported Not Reported
04/08/2021 07:44 AM 37.76 30.74 15.80 66.74 26.60 39.0 Not Reported 6.49 S 4.70 SE 7.61 SE No 0.000 No Precipitation 03/23/2021 12:14 AM 03/23/2021 12:25 AM 0.000 0.000 0.000 0.000 0.000 Not Reported Not Reported
04/08/2021 07:49 AM 38.48 31.28 16.16 66.74 26.60 39.0 Not Reported 5.82 SE 5.59 SE 6.93 SE No 0.000 No Precipitation 03/23/2021 12:14 AM 03/23/2021 12:25 AM 0.000 0.000 0.000 0.000 0.000 Not Reported Not Reported
04/08/2021 07:54 AM 39.20 31.64 16.16 66.74 26.60 38.0 Not Reported 6.49 S 7.16 SE 7.38 S No 0.000 No Precipitation 03/23/2021 12:14 AM 03/23/2021 12:25 AM 0.000 0.000 0.000 0.000 0.000 Not Reported Not Reported
04/08/2021 07:59 AM 40.28 32.18 16.52 66.74 26.60 37.0 Not Reported 8.05 E 7.83 SE 8.72 SE No 0.000 No Precipitation 03/23/2021 12:14 AM 03/23/2021 12:25 AM 0.000 0.000 0.000 0.000 0.000 Not Reported Not Reported
04/08/2021 08:04 AM 41.00 32.72 17.24 66.74 26.60 38.0 Not Reported 5.14 S 4.47 S 8.72 SE No 0.000 No Precipitation 03/23/2021 12:14 AM 03/23/2021 12:25 AM 0.000 0.000 0.000 0.000 0.000 Not Reported Not Reported
04/08/2021 08:09 AM 41.36 33.08 17.06 66.74 26.60 37.0 Not Reported 4.92 S 5.37 S 6.71 SE No 0.000 No Precipitation 03/23/2021 12:14 AM 03/23/2021 12:25 AM 0.000 0.000 0.000 0.000 0.000 Not Reported Not Reported
04/08/2021 08:14 AM 42.98 34.34 18.32 66.74 26.60 35.0 Not Reported 6.49 S 5.37 S 6.93 SE No 0.000 No Precipitation 03/23/2021 12:14 AM 03/23/2021 12:25 AM 0.000 0.000 0.000 0.000 0.000 Not Reported Not Reported
04/08/2021 08:19 AM 44.42 35.42 18.68 66.74 26.60 36.0 Not Reported 4.03 S 2.91 SW 6.93 SE No 0.000 No Precipitation 03/23/2021 12:14 AM 03/23/2021 12:25 AM 0.000 0.000 0.000 0.000 0.000 Not Reported Not Reported
04/08/2021 08:24 AM 45.50 35.42 16.52 66.74 26.60 31.0 Not Reported 4.25 SW 6.04 S 6.26 S No 0.000 No Precipitation 03/23/2021 12:14 AM 03/23/2021 12:25 AM 0.000 0.000 0.000 0.000 0.000 Not Reported Not Reported
04/08/2021 08:29 AM 46.22 35.60 15.62 66.74 26.60 28.0 Not Reported 3.36 S 3.13 S 6.26 S No 0.000 No Precipitation 03/23/2021 12:14 AM 03/23/2021 12:25 AM 0.000 0.000 0.000 0.000 0.000 Not Reported Not Reported
04/08/2021 08:34 AM 46.76 35.96 15.62 66.74 26.60 29.0 Not Reported 4.47 S 3.80 S 5.59 S No 0.000 No Precipitation 03/23/2021 12:14 AM 03/23/2021 12:25 AM 0.000 0.000 0.000 0.000 0.000 Not Reported Not Reported
04/08/2021 08:39 AM 47.48 36.50 16.70 66.74 26.60 28.0 Not Reported 4.70 SW 5.37 SW 5.37 SW No 0.000 No Precipitation 03/23/2021 12:14 AM 03/23/2021 12:25 AM 0.000 0.000 0.000 0.000 0.000 Not Reported Not Reported
04/08/2021 08:44 AM 47.84 37.04 16.34 66.74 26.60 28.0 Not Reported 2.68 S 1.79 SE 6.26 S No 0.000 No Precipitation 03/23/2021 12:14 AM 03/23/2021 12:25 AM 0.000 0.000 0.000 0.000 0.000 Not Reported Not Reported
04/08/2021 08:49 AM 48.38 37.04 17.24 66.74 26.60 26.0 Not Reported 4.03 S 4.47 S 6.26 S No 0.000 No Precipitation 03/23/2021 12:14 AM 03/23/2021 12:25 AM 0.000 0.000 0.000 0.000 0.000 Not Reported Not Reported
04/08/2021 08:54 AM 48.92 37.40 16.88 66.74 26.60 27.0 Not Reported 3.36 S 4.25 S 4.92 S No 0.000 No Precipitation 03/23/2021 12:14 AM 03/23/2021 12:25 AM 0.000 0.000 0.000 0.000 0.000 Not Reported Not Reported
04/08/2021 08:59 AM 50.36 38.30 17.42 66.74 26.60 26.0 Not Reported 2.91 S 2.24 SW 4.92 S No 0.000 No Precipitation 03/23/2021 12:14 AM 03/23/2021 12:25 AM 0.000 0.000 0.000 0.000 0.000 Not Reported Not Reported
04/08/2021 09:04 AM 50.90 38.48 18.14 66.74 26.60 27.0 Not Reported 1.12 W 2.01 SW 3.58 S No 0.000 No Precipitation 03/23/2021 12:14 AM 03/23/2021 12:25 AM 0.000 0.000 0.000 0.000 0.000 Not Reported Not Reported
04/08/2021 09:09 AM 51.80 39.02 18.32 66.74 26.60 24.0 Not Reported 1.57 SW 0.22 S 2.68 SW No 0.000 No Precipitation 03/23/2021 12:14 AM 03/23/2021 12:25 AM 0.000 0.000 0.000 0.000 0.000 Not Reported Not Reported
04/08/2021 09:14 AM 52.52 39.56 18.50 66.74 26.60 25.0 Not Reported 0.89 W 1.57 SW 2.68 SW No 0.000 No Precipitation 03/23/2021 12:14 AM 03/23/2021 12:25 AM 0.000 0.000 0.000 0.000 0.000 Not Reported Not Reported
04/08/2021 09:19 AM 52.52 39.74 19.04 66.74 26.60 26.0 Not Reported 1.34 S 0.45 NE 2.01 E No 0.000 No Precipitation 03/23/2021 12:14 AM 03/23/2021 12:25 AM 0.000 0.000 0.000 0.000 0.000 Not Reported Not Reported
04/08/2021 09:24 AM 52.34 39.38 19.04 66.74 26.60 26.0 Not Reported 2.91 N 2.46 N 3.36 NE No 0.000 No Precipitation 03/23/2021 12:14 AM 03/23/2021 12:25 AM 0.000 0.000 0.000 0.000 0.000 Not Reported Not Reported
04/08/2021 09:29 AM 52.16 39.74 19.76 66.74 26.60 27.0 Not Reported 4.47 N 5.37 NW 5.59 N No 0.000 No Precipitation 03/23/2021 12:14 AM 03/23/2021 12:25 AM 0.000 0.000 0.000 0.000 0.000 Not Reported Not Reported
04/08/2021 09:34 AM 52.70 40.10 19.40 66.74 26.60 26.0 Not Reported 2.68 NW 1.79 NW 5.59 N No 0.000 No Precipitation 03/23/2021 12:14 AM 03/23/2021 12:25 AM 0.000 0.000 0.000 0.000 0.000 Not Reported Not Reported
04/08/2021 09:39 AM 52.52 40.10 20.30 66.74 26.60 27.0 Not Reported 4.70 N 1.57 N 4.92 NW No 0.000 No Precipitation 03/23/2021 12:14 AM 03/23/2021 12:25 AM 0.000 0.000 0.000 0.000 0.000 Not Reported Not Reported
04/08/2021 09:44 AM 53.06 40.28 20.30 66.74 26.60 27.0 Not Reported 4.70 NW 2.68 N 5.59 NW No 0.000 No Precipitation 03/23/2021 12:14 AM 03/23/2021 12:25 AM 0.000 0.000 0.000 0.000 0.000 Not Reported Not Reported
04/08/2021 09:49 AM 53.42 40.64 21.56 66.74 26.60 28.0 Not Reported 3.80 N 5.14 N 5.59 NW No 0.000 No Precipitation 03/23/2021 12:14 AM 03/23/2021 12:25 AM 0.000 0.000 0.000 0.000 0.000 Not Reported Not Reported
04/08/2021 09:54 AM 53.24 40.28 19.76 66.74 26.60 26.0 Not Reported 3.36 N 6.71 NE 7.61 N No 0.000 No Precipitation 03/23/2021 12:14 AM 03/23/2021 12:25 AM 0.000 0.000 0.000 0.000 0.000 Not Reported Not Reported
04/08/2021 09:59 AM 53.96 40.46 19.94 66.74 26.60 26.0 Not Reported 4.25 NE 3.80 NE 7.61 N No 0.000 No Precipitation 03/23/2021 12:14 AM 03/23/2021 12:25 AM 0.000 0.000 0.000 0.000 0.000 Not Reported Not Reported
04/08/2021 10:04 AM 53.96 40.64 19.76 66.74 26.60 25.0 Not Reported 4.92 N 4.25 NW 6.93 NW No 0.000 No Precipitation 03/23/2021 12:14 AM 03/23/2021 12:25 AM 0.000 0.000 0.000 0.000 0.000 Not Reported Not Reported
04/08/2021 10:09 AM 53.42 40.28 19.76 66.74 26.60 26.0 Not Reported 6.71 N 4.70 NW 8.50 W No 0.000 No Precipitation 03/23/2021 12:14 AM 03/23/2021 12:25 AM 0.000 0.000 0.000 0.000 0.000 Not Reported Not Reported
04/08/2021 10:14 AM 54.32 40.82 20.12 66.74 26.60 25.0 Not Reported 1.34 N 5.37 NE 8.50 W No 0.000 No Precipitation 03/23/2021 12:14 AM 03/23/2021 12:25 AM 0.000 0.000 0.000 0.000 0.000 Not Reported Not Reported
04/08/2021 10:19 AM 54.68 41.54 19.94 66.74 26.60 26.0 Not Reported 3.80 NE 0.67 NW 5.37 NE No 0.000 No Precipitation 03/23/2021 12:14 AM 03/23/2021 12:25 AM 0.000 0.000 0.000 0.000 0.000 Not Reported Not Reported
04/08/2021 10:24 AM 54.86 40.64 20.30 66.74 26.60 23.0 Not Reported 8.05 N 5.59 N 9.84 N No 0.000 No Precipitation 03/23/2021 12:14 AM 03/23/2021 12:25 AM 0.000 0.000 0.000 0.000 0.000 Not Reported Not Reported
04/08/2021 10:29 AM 55.76 41.72 19.58 66.74 26.60 23.0 Not Reported 2.24 W 4.03 NW 9.84 N No 0.000 No Precipitation 03/23/2021 12:14 AM 03/23/2021 12:25 AM 0.000 0.000 0.000 0.000 0.000 Not Reported Not Reported
04/08/2021 10:34 AM 55.94 41.72 20.12 66.74 26.60 24.0 Not Reported 7.61 NW 5.82 NW 8.95 NW No 0.000 No Precipitation 03/23/2021 12:14 AM 03/23/2021 12:25 AM 0.000 0.000 0.000 0.000 0.000 Not Reported Not Reported
04/08/2021 10:39 AM 55.04 41.00 18.86 66.74 26.60 23.0 Not Reported 6.71 NW 2.68 N 8.95 NW No 0.000 No Precipitation 03/23/2021 12:14 AM 03/23/2021 12:25 AM 0.000 0.000 0.000 0.000 0.000 Not Reported Not Reported
04/08/2021 10:44 AM 55.94 41.72 20.12 66.74 26.60 23.0 Not Reported 5.59 NW 4.70 W 8.05 NW No 0.000 No Precipitation 03/23/2021 12:14 AM 03/23/2021 12:25 AM 0.000 0.000 0.000 0.000 0.000 Not Reported Not Reported
04/08/2021 10:49 AM 55.94 41.54 19.04 66.74 26.60 23.0 Not Reported 5.37 NW 3.58 NE 8.95 NW No 0.000 No Precipitation 03/23/2021 12:14 AM 03/23/2021 12:25 AM 0.000 0.000 0.000 0.000 0.000 Not Reported Not Reported
04/08/2021 10:54 AM 56.48 41.90 19.04 66.74 26.60 22.0 Not Reported 2.01 N 5.82 NW 8.95 NW No 0.000 No Precipitation 03/23/2021 12:14 AM 03/23/2021 12:25 AM 0.000 0.000 0.000 0.000 0.000 Not Reported Not Reported
04/08/2021 10:59 AM 56.84 41.90 19.40 66.74 26.60 23.0 Not Reported 3.13 N 7.16 W 8.50 NW No 0.000 No Precipitation 03/23/2021 12:14 AM 03/23/2021 12:25 AM 0.000 0.000 0.000 0.000 0.000 Not Reported Not Reported
04/08/2021 11:04 AM 56.12 41.72 19.40 66.74 26.60 23.0 Not Reported 6.93 N 0.89 N 11.18 N No 0.000 No Precipitation 03/23/2021 12:14 AM 03/23/2021 12:25 AM 0.000 0.000 0.000 0.000 0.000 Not Reported Not Reported
04/08/2021 11:09 AM 57.38 42.08 18.86 66.74 26.60 21.0 Not Reported 2.91 N 6.04 NW 11.18 N No 0.000 No Precipitation 03/23/2021 12:14 AM 03/23/2021 12:25 AM 0.000 0.000 0.000 0.000 0.000 Not Reported Not Reported
04/08/2021 11:14 AM 57.02 41.90 18.50 66.74 26.60 21.0 Not Reported 5.37 N 4.70 NE 6.71 N No 0.000 No Precipitation 03/23/2021 12:14 AM 03/23/2021 12:25 AM 0.000 0.000 0.000 0.000 0.000 Not Reported Not Reported
04/08/2021 11:19 AM 57.38 42.62 20.66 66.74 26.60 23.0 Not Reported 2.46 SE 3.13 N 6.71 N No 0.000 No Precipitation 03/23/2021 12:14 AM 03/23/2021 12:25 AM 0.000 0.000 0.000 0.000 0.000 Not Reported Not Reported
04/08/2021 11:24 AM 57.74 42.26 17.96 66.74 26.60 21.0 Not Reported 6.04 NW 7.61 W 7.61 NW No 0.000 No Precipitation 03/23/2021 12:14 AM 03/23/2021 12:25 AM 0.000 0.000 0.000 0.000 0.000 Not Reported Not Reported
04/08/2021 11:29 AM 58.64 42.98 19.22 66.74 26.60 21.0 Not Reported 3.13 NW 3.58 N 7.61 NW No 0.000 No Precipitation 03/23/2021 12:14 AM 03/23/2021 12:25 AM 0.000 0.000 0.000 0.000 0.000 Not Reported Not Reported
04/08/2021 11:34 AM 57.74 42.08 17.42 66.74 26.60 19.0 Not Reported 3.13 NE 2.01 SE 7.16 NE No 0.000 No Precipitation 03/23/2021 12:14 AM 03/23/2021 12:25 AM 0.000 0.000 0.000 0.000 0.000 Not Reported Not Reported
04/08/2021 11:39 AM 58.10 42.62 17.78 66.74 26.60 20.0 Not Reported 3.36 N 3.80 NE 7.16 NE No 0.000 No Precipitation 03/23/2021 12:14 AM 03/23/2021 12:25 AM 0.000 0.000 0.000 0.000 0.000 Not Reported Not Reported
04/08/2021 11:44 AM 57.74 42.26 17.24 66.74 26.60 20.0 Not Reported 8.72 NW 4.47 NW 10.96 NW No 0.000 No Precipitation 03/23/2021 12:14 AM 03/23/2021 12:25 AM 0.000 0.000 0.000 0.000 0.000 Not Reported Not Reported
04/08/2021 11:49 AM 57.92 42.26 17.24 66.74 26.60 20.0 Not Reported 2.91 N 2.68 NW 10.96 NW No 0.000 No Precipitation 03/23/2021 12:14 AM 03/23/2021 12:25 AM 0.000 0.000 0.000 0.000 0.000 Not Reported Not Reported
04/08/2021 11:54 AM 59.36 42.98 18.14 66.74 26.60 20.0 Not Reported 9.84 NW 11.18 N 11.86 N No 0.000 No Precipitation 03/23/2021 12:14 AM 03/23/2021 12:25 AM 0.000 0.000 0.000 0.000 0.000 Not Reported Not Reported
04/08/2021 11:59 AM 58.28 42.44 18.14 66.74 26.60 20.0 Not Reported 7.38 NW 6.26 N 11.86 N No 0.000 No Precipitation 03/23/2021 12:14 AM 03/23/2021 12:25 AM 0.000 0.000 0.000 0.000 0.000 Not Reported Not Reported
04/08/2021 12:04 PM 59.18 43.52 20.30 66.74 26.60 21.0 Not Reported 2.91 NW 7.16 W 11.86 NW No 0.000 No Precipitation 03/23/2021 12:14 AM 03/23/2021 12:25 AM 0.000 0.000 0.000 0.000 0.000 Not Reported Not Reported
04/08/2021 12:09 PM 59.18 43.52 19.94 66.74 26.60 20.0 Not Reported 8.72 NW 4.47 N 11.86 NW No 0.000 No Precipitation 03/23/2021 12:14 AM 03/23/2021 12:25 AM 0.000 0.000 0.000 0.000 0.000 Not Reported Not Reported
04/08/2021 12:14 PM 59.00 42.98 17.96 66.74 26.60 20.0 Not Reported 10.07 N 8.72 N 12.75 N No 0.000 No Precipitation 03/23/2021 12:14 AM 03/23/2021 12:25 AM 0.000 0.000 0.000 0.000 0.000 Not Reported Not Reported
04/08/2021 12:19 PM 60.08 43.88 19.76 66.74 26.60 19.0 Not Reported 11.18 NW 11.86 NW 14.32 NW No 0.000 No Precipitation 03/23/2021 12:14 AM 03/23/2021 12:25 AM 0.000 0.000 0.000 0.000 0.000 Not Reported Not Reported
04/08/2021 12:24 PM 60.08 43.88 19.58 66.74 26.60 20.0 Not Reported 9.17 N 11.86 N 14.32 NW No 0.000 No Precipitation 03/23/2021 12:14 AM 03/23/2021 12:25 AM 0.000 0.000 0.000 0.000 0.000 Not Reported Not Reported
04/08/2021 12:29 PM 60.26 43.34 17.42 66.74 26.60 18.0 Not Reported 11.18 N 8.95 N 15.66 N No 0.000 No Precipitation 03/23/2021 12:14 AM 03/23/2021 12:25 AM 0.000 0.000 0.000 0.000 0.000 Not Reported Not Reported
04/08/2021 12:34 PM 59.54 43.34 18.14 66.74 26.60 19.0 Not Reported 10.29 N 3.13 NW 15.66 N No 0.000 No Precipitation 03/23/2021 12:14 AM 03/23/2021 12:25 AM 0.000 0.000 0.000 0.000 0.000 Not Reported Not Reported
04/08/2021 12:39 PM 60.08 43.70 18.86 66.74 26.60 19.0 Not Reported 11.18 N 11.41 N 14.09 N No 0.000 No Precipitation 03/23/2021 12:14 AM 03/23/2021 12:25 AM 0.000 0.000 0.000 0.000 0.000 Not Reported Not Reported
04/08/2021 12:44 PM 60.08 43.34 19.94 66.74 26.60 18.0 Not Reported 7.61 N 12.75 N 14.09 N No 0.000 No Precipitation 03/23/2021 12:14 AM 03/23/2021 12:25 AM 0.000 0.000 0.000 0.000 0.000 Not Reported Not Reported
04/08/2021 12:49 PM 61.16 43.52 18.14 66.74 26.60 18.0 Not Reported 6.04 N 9.84 N 13.65 N No 0.000 No Precipitation 03/23/2021 12:14 AM 03/23/2021 12:25 AM 0.000 0.000 0.000 0.000 0.000 Not Reported Not Reported
04/08/2021 12:54 PM 60.26 43.34 17.96 66.74 26.60 18.0 Not Reported 6.71 NW 5.59 N 13.20 N No 0.000 No Precipitation 03/23/2021 12:14 AM 03/23/2021 12:25 AM 0.000 0.000 0.000 0.000 0.000 Not Reported Not Reported
04/08/2021 01:04 PM 61.52 43.70 17.24 66.74 26.60 17.0 Not Reported 9.84 NW 10.29 N 13.42 N No 0.000 No Precipitation 03/23/2021 12:14 AM 03/23/2021 12:25 AM 0.000 0.000 0.000 0.000 0.000 Not Reported Not Reported
04/08/2021 01:09 PM 60.80 43.88 17.78 66.74 26.60 17.0 Not Reported 9.40 NE 3.58 N 12.53 NW No 0.000 No Precipitation 03/23/2021 12:14 AM 03/23/2021 12:25 AM 0.000 0.000 0.000 0.000 0.000 Not Reported Not Reported
04/08/2021 01:14 PM 61.52 44.24 18.68 66.74 26.60 17.0 Not Reported 6.71 N 7.16 N 11.86 NE No 0.000 No Precipitation 03/23/2021 12:14 AM 03/23/2021 12:25 AM 0.000 0.000 0.000 0.000 0.000 Not Reported Not Reported
04/08/2021 01:19 PM 61.52 43.88 16.34 66.74 26.60 17.0 Not Reported 5.14 NE 3.80 NE 11.86 NE No 0.000 No Precipitation 03/23/2021 12:14 AM 03/23/2021 12:25 AM 0.000 0.000 0.000 0.000 0.000 Not Reported Not Reported
04/08/2021 01:24 PM 62.06 44.60 16.16 66.74 26.60 17.0 Not Reported 11.18 N 15.88 N 15.88 N No 0.000 No Precipitation 03/23/2021 12:14 AM 03/23/2021 12:25 AM 0.000 0.000 0.000 0.000 0.000 Not Reported Not Reported
04/08/2021 01:29 PM 63.86 44.78 15.62 66.74 26.60 15.0 Not Reported 12.30 N 14.09 NW 17.45 N No 0.000 No Precipitation 03/23/2021 12:14 AM 03/23/2021 12:25 AM 0.000 0.000 0.000 0.000 0.000 Not Reported Not Reported
04/08/2021 01:34 PM 62.96 45.14 17.96 66.74 26.60 16.0 Not Reported 12.08 N 13.42 N 17.45 N No 0.000 No Precipitation 03/23/2021 12:14 AM 03/23/2021 12:25 AM 0.000 0.000 0.000 0.000 0.000 Not Reported Not Reported
04/08/2021 01:39 PM 64.04 45.68 18.50 66.74 26.60 16.0 Not Reported 12.08 NW 13.42 N 15.88 NW No 0.000 No Precipitation 03/23/2021 12:14 AM 03/23/2021 12:25 AM 0.000 0.000 0.000 0.000 0.000 Not Reported Not Reported
04/08/2021 01:44 PM 62.96 44.96 17.24 66.74 26.60 16.0 Not Reported 14.76 N 14.99 N 20.58 N No 0.000 No Precipitation 03/23/2021 12:14 AM 03/23/2021 12:25 AM 0.000 0.000 0.000 0.000 0.000 Not Reported Not Reported
04/08/2021 01:49 PM 63.68 44.78 16.16 66.74 26.60 15.0 Not Reported 11.63 N 17.90 N 20.58 N No 0.000 No Precipitation 03/23/2021 12:14 AM 03/23/2021 12:25 AM 0.000 0.000 0.000 0.000 0.000 Not Reported Not Reported
04/08/2021 01:54 PM 64.04 45.14 17.24 66.74 26.60 15.0 Not Reported 17.67 N 17.22 N 20.58 NW No 0.000 No Precipitation 03/23/2021 12:14 AM 03/23/2021 12:25 AM 0.000 0.000 0.000 0.000 0.000 Not Reported Not Reported
04/08/2021 01:59 PM 63.32 45.50 18.14 66.74 26.60 16.0 Not Reported 18.57 N 20.36 N 20.36 N No 0.000 No Precipitation 03/23/2021 12:14 AM 03/23/2021 12:25 AM 0.000 0.000 0.000 0.000 0.000 Not Reported Not Reported
04/08/2021 02:04 PM 64.40 45.50 17.60 66.74 26.60 16.0 Not Reported 16.78 N 17.67 N 20.36 N No 0.000 No Precipitation 03/23/2021 12:14 AM 03/23/2021 12:25 AM 0.000 0.000 0.000 0.000 0.000 Not Reported Not Reported
04/08/2021 02:09 PM 63.32 44.78 16.16 66.74 26.60 16.0 Not Reported 14.54 N 6.71 NW 18.79 N No 0.000 No Precipitation 03/23/2021 12:14 AM 03/23/2021 12:25 AM 0.000 0.000 0.000 0.000 0.000 Not Reported Not Reported
04/08/2021 02:14 PM 64.22 45.32 17.24 66.74 26.60 16.0 Not Reported 12.08 N 11.41 N 16.55 NW No 0.000 No Precipitation 03/23/2021 12:14 AM 03/23/2021 12:25 AM 0.000 0.000 0.000 0.000 0.000 Not Reported Not Reported
04/08/2021 02:19 PM 64.04 44.96 15.98 66.74 26.60 15.0 Not Reported 10.74 N 7.61 N 19.46 NW No 0.000 No Precipitation 03/23/2021 12:14 AM 03/23/2021 12:25 AM 0.000 0.000 0.000 0.000 0.000 Not Reported Not Reported
04/08/2021 02:24 PM 63.50 45.14 16.70 66.74 26.60 16.0 Not Reported 13.20 N 15.66 N 19.46 NW No 0.000 No Precipitation 03/23/2021 12:14 AM 03/23/2021 12:25 AM 0.000 0.000 0.000 0.000 0.000 Not Reported Not Reported
04/08/2021 02:29 PM 64.04 45.14 16.70 66.74 26.60 15.0 Not Reported 13.65 N 15.21 N 19.69 NW No 0.000 No Precipitation 03/23/2021 12:14 AM 03/23/2021 12:25 AM 0.000 0.000 0.000 0.000 0.000 Not Reported Not Reported
04/08/2021 02:34 PM 64.94 45.68 17.78 66.74 26.60 14.0 Not Reported 15.43 N 12.08 N 19.91 N No 0.000 No Precipitation 03/23/2021 12:14 AM 03/23/2021 12:25 AM 0.000 0.000 0.000 0.000 0.000 Not Reported Not Reported
04/08/2021 02:39 PM 65.12 45.68 16.70 66.74 26.60 15.0 Not Reported 14.54 N 11.86 N 19.91 N No 0.000 No Precipitation 03/23/2021 12:14 AM 03/23/2021 12:25 AM 0.000 0.000 0.000 0.000 0.000 Not Reported Not Reported
04/08/2021 02:44 PM 64.94 45.50 16.52 66.74 26.60 15.0 Not Reported 14.99 NW 15.88 NW 17.90 N No 0.000 No Precipitation 03/23/2021 12:14 AM 03/23/2021 12:25 AM 0.000 0.000 0.000 0.000 0.000 Not Reported Not Reported
04/08/2021 02:49 PM 64.58 45.14 16.70 66.74 26.60 14.0 Not Reported 12.30 NW 15.66 N 16.78 NW No 0.000 No Precipitation 03/23/2021 12:14 AM 03/23/2021 12:25 AM 0.000 0.000 0.000 0.000 0.000 Not Reported Not Reported
04/08/2021 02:54 PM 64.22 44.96 14.72 66.38 26.60 15.0 Not Reported 7.83 N 7.16 N 16.55 NW No 0.000 No Precipitation 03/23/2021 12:14 AM 03/23/2021 12:25 AM 0.000 0.000 0.000 0.000 0.000 Not Reported Not Reported
04/08/2021 02:59 PM 64.58 45.68 16.70 66.38 26.60 15.0 Not Reported 9.62 N 9.40 N 14.32 N No 0.000 No Precipitation 03/23/2021 12:14 AM 03/23/2021 12:25 AM 0.000 0.000 0.000 0.000 0.000 Not Reported Not Reported
04/08/2021 03:04 PM 64.58 45.32 16.16 66.20 26.60 15.0 Not Reported 17.22 N 13.87 N 18.34 N No 0.000 No Precipitation 03/23/2021 12:14 AM 03/23/2021 12:25 AM 0.000 0.000 0.000 0.000 0.000 Not Reported Not Reported
04/08/2021 03:09 PM 64.40 45.32 15.08 66.20 26.60 15.0 Not Reported 16.78 NW 14.99 N 19.01 NW No 0.000 No Precipitation 03/23/2021 12:14 AM 03/23/2021 12:25 AM 0.000 0.000 0.000 0.000 0.000 Not Reported Not Reported
04/08/2021 03:14 PM 64.22 44.78 14.72 66.20 26.60 14.0 Not Reported 13.87 N 13.20 N 19.01 NW No 0.000 No Precipitation 03/23/2021 12:14 AM 03/23/2021 12:25 AM 0.000 0.000 0.000 0.000 0.000 Not Reported Not Reported
04/08/2021 03:19 PM 64.58 45.32 14.90 66.20 26.60 14.0 Not Reported 13.20 N 16.11 N 17.90 NW No 0.000 No Precipitation 03/23/2021 12:14 AM 03/23/2021 12:25 AM 0.000 0.000 0.000 0.000 0.000 Not Reported Not Reported
04/08/2021 03:24 PM 65.12 45.68 15.80 66.20 26.60 14.0 Not Reported 8.72 N 13.42 N 16.11 N No 0.000 No Precipitation 03/23/2021 12:14 AM 03/23/2021 12:25 AM 0.000 0.000 0.000 0.000 0.000 Not Reported Not Reported
04/08/2021 03:29 PM 65.12 45.86 16.52 66.20 26.60 14.0 Not Reported 12.75 N 13.20 N 14.32 N No 0.000 No Precipitation 03/23/2021 12:14 AM 03/23/2021 12:25 AM 0.000 0.000 0.000 0.000 0.000 Not Reported Not Reported
04/08/2021 03:34 PM 65.12 45.68 16.52 66.38 26.60 14.0 Not Reported 13.20 N 12.53 N 14.54 NW No 0.000 No Precipitation 03/23/2021 12:14 AM 03/23/2021 12:25 AM 0.000 0.000 0.000 0.000 0.000 Not Reported Not Reported
04/08/2021 03:39 PM 65.30 45.68 16.16 66.38 26.60 14.0 Not Reported 14.99 N 14.76 NE 15.43 N No 0.000 No Precipitation 03/23/2021 12:14 AM 03/23/2021 12:25 AM 0.000 0.000 0.000 0.000 0.000 Not Reported Not Reported
04/08/2021 03:44 PM 65.12 45.68 15.26 66.38 26.60 15.0 Not Reported 12.75 NW 10.29 NW 15.43 N No 0.000 No Precipitation 03/23/2021 12:14 AM 03/23/2021 12:25 AM 0.000 0.000 0.000 0.000 0.000 Not Reported Not Reported
04/08/2021 03:49 PM 65.84 45.86 16.16 66.38 26.60 13.0 Not Reported 12.75 N 13.20 NW 17.00 NW No 0.000 No Precipitation 03/23/2021 12:14 AM 03/23/2021 12:25 AM 0.000 0.000 0.000 0.000 0.000 Not Reported Not Reported
04/08/2021 03:54 PM 65.66 45.86 14.72 66.38 26.60 14.0 Not Reported 10.29 NW 4.47 NW 17.00 NW No 0.000 No Precipitation 03/23/2021 12:14 AM 03/23/2021 12:25 AM 0.000 0.000 0.000 0.000 0.000 Not Reported Not Reported
04/08/2021 03:59 PM 65.48 45.68 16.16 66.56 26.60 14.0 Not Reported 10.51 N 9.84 N 18.34 N No 0.000 No Precipitation 03/23/2021 12:14 AM 03/23/2021 12:25 AM 0.000 0.000 0.000 0.000 0.000 Not Reported Not Reported
04/08/2021 04:04 PM 65.12 45.68 16.52 66.56 26.60 14.0 Not Reported 17.22 N 9.84 N 20.13 N No 0.000 No Precipitation 03/23/2021 12:14 AM 03/23/2021 12:25 AM 0.000 0.000 0.000 0.000 0.000 Not Reported Not Reported
04/08/2021 04:09 PM 65.66 46.04 15.80 66.56 26.60 14.0 Not Reported 11.18 N 12.53 N 20.13 N No 0.000 No Precipitation 03/23/2021 12:14 AM 03/23/2021 12:25 AM 0.000 0.000 0.000 0.000 0.000 Not Reported Not Reported
04/08/2021 04:14 PM 65.84 45.86 15.44 66.56 26.60 14.0 Not Reported 11.41 N 15.88 N 15.88 N No 0.000 No Precipitation 03/23/2021 12:14 AM 03/23/2021 12:25 AM 0.000 0.000 0.000 0.000 0.000 Not Reported Not Reported
04/08/2021 04:19 PM 65.30 45.50 14.54 66.56 26.60 14.0 Not Reported 10.29 N 6.71 NW 15.88 N No 0.000 No Precipitation 03/23/2021 12:14 AM 03/23/2021 12:25 AM 0.000 0.000 0.000 0.000 0.000 Not Reported Not Reported
04/08/2021 04:24 PM 65.30 45.86 16.34 66.56 26.60 14.0 Not Reported 10.74 NW 13.65 NW 18.34 NE No 0.000 No Precipitation 03/23/2021 12:14 AM 03/23/2021 12:25 AM 0.000 0.000 0.000 0.000 0.000 Not Reported Not Reported
04/08/2021 04:29 PM 65.66 45.68 15.08 66.56 26.60 13.0 Not Reported 10.29 NW 15.43 N 18.34 NE No 0.000 No Precipitation 03/23/2021 12:14 AM 03/23/2021 12:25 AM 0.000 0.000 0.000 0.000 0.000 Not Reported Not Reported
04/08/2021 04:34 PM 65.48 45.68 15.44 66.56 26.60 13.0 Not Reported 11.63 N 17.00 N 18.34 N No 0.000 No Precipitation 03/23/2021 12:14 AM 03/23/2021 12:25 AM 0.000 0.000 0.000 0.000 0.000 Not Reported Not Reported
04/08/2021 04:44 PM 65.84 46.04 15.80 66.56 26.60 13.0 Not Reported 8.95 NW 10.74 NW 17.00 N No 0.000 No Precipitation 03/23/2021 12:14 AM 03/23/2021 12:25 AM 0.000 0.000 0.000 0.000 0.000 Not Reported Not Reported
04/08/2021 04:49 PM 65.84 46.04 15.98 66.56 26.60 14.0 Not Reported 13.87 NW 12.97 N 15.43 NW No 0.000 No Precipitation 03/23/2021 12:14 AM 03/23/2021 12:25 AM 0.000 0.000 0.000 0.000 0.000 Not Reported Not Reported
04/08/2021 04:59 PM 66.38 46.04 16.70 66.56 26.60 13.0 Not Reported 12.30 NW 14.32 NW 17.67 N No 0.000 No Precipitation 03/23/2021 12:14 AM 03/23/2021 12:25 AM 0.000 0.000 0.000 0.000 0.000 Not Reported Not Reported
04/08/2021 05:04 PM 65.66 46.22 17.06 66.56 26.60 15.0 Not Reported 12.08 NW 12.08 NW 17.45 NW No 0.000 No Precipitation 03/23/2021 12:14 AM 03/23/2021 12:25 AM 0.000 0.000 0.000 0.000 0.000 Not Reported Not Reported
04/08/2021 05:09 PM 65.66 45.86 16.16 66.56 26.60 14.0 Not Reported 10.51 NW 10.51 NW 17.45 NW No 0.000 No Precipitation 03/23/2021 12:14 AM 03/23/2021 12:25 AM 0.000 0.000 0.000 0.000 0.000 Not Reported Not Reported
04/08/2021 05:14 PM 65.66 45.86 15.62 66.56 26.60 14.0 Not Reported 10.29 NW 7.16 NW 13.42 NW No 0.000 No Precipitation 03/23/2021 12:14 AM 03/23/2021 12:25 AM 0.000 0.000 0.000 0.000 0.000 Not Reported Not Reported
04/08/2021 05:19 PM 65.66 45.86 16.16 66.56 26.60 14.0 Not Reported 12.08 NW 13.65 NW 13.65 NW No 0.000 No Precipitation 03/23/2021 12:14 AM 03/23/2021 12:25 AM 0.000 0.000 0.000 0.000 0.000 Not Reported Not Reported
04/08/2021 05:24 PM 65.12 45.32 15.08 66.56 26.60 14.0 Not Reported 10.51 NW 12.97 NW 14.09 NW No 0.000 No Precipitation 03/23/2021 12:14 AM 03/23/2021 12:25 AM 0.000 0.000 0.000 0.000 0.000 Not Reported Not Reported
04/08/2021 05:29 PM 65.48 45.50 14.54 66.56 26.60 13.0 Not Reported 8.50 NW 11.18 NW 14.09 NW No 0.000 No Precipitation 03/23/2021 12:14 AM 03/23/2021 12:25 AM 0.000 0.000 0.000 0.000 0.000 Not Reported Not Reported
04/08/2021 05:34 PM 65.30 46.04 15.98 66.56 26.60 15.0 Not Reported 11.41 NW 11.18 NW 12.97 NW No 0.000 No Precipitation 03/23/2021 12:14 AM 03/23/2021 12:25 AM 0.000 0.000 0.000 0.000 0.000 Not Reported Not Reported
04/08/2021 05:39 PM 64.76 45.32 15.26 66.56 26.60 14.0 Not Reported 11.18 N 12.75 NW 14.09 NW No 0.000 No Precipitation 03/23/2021 12:14 AM 03/23/2021 12:25 AM 0.000 0.000 0.000 0.000 0.000 Not Reported Not Reported
04/08/2021 05:44 PM 64.76 45.32 16.52 66.56 26.60 14.0 Not Reported 12.08 N 13.87 N 14.09 NW No 0.000 No Precipitation 03/23/2021 12:14 AM 03/23/2021 12:25 AM 0.000 0.000 0.000 0.000 0.000 Not Reported Not Reported
04/08/2021 05:49 PM 65.12 45.68 16.52 66.56 26.60 14.0 Not Reported 14.32 NW 13.65 NW 15.66 NW No 0.000 No Precipitation 03/23/2021 12:14 AM 03/23/2021 12:25 AM 0.000 0.000 0.000 0.000 0.000 Not Reported Not Reported
04/08/2021 05:54 PM 64.76 45.14 15.44 66.56 26.60 14.0 Not Reported 14.09 NW 12.53 NW 15.66 NW No 0.000 No Precipitation 03/23/2021 12:14 AM 03/23/2021 12:25 AM 0.000 0.000 0.000 0.000 0.000 Not Reported Not Reported
04/08/2021 05:59 PM 64.40 44.96 14.72 66.56 26.60 14.0 Not Reported 15.43 NW 14.32 NW 16.55 NW No 0.000 No Precipitation 03/23/2021 12:14 AM 03/23/2021 12:25 AM 0.000 0.000 0.000 0.000 0.000 Not Reported Not Reported
04/08/2021 06:04 PM 64.22 44.96 14.72 66.56 26.60 14.0 Not Reported 11.41 N 14.76 NW 16.55 NW No 0.000 No Precipitation 03/23/2021 12:14 AM 03/23/2021 12:25 AM 0.000 0.000 0.000 0.000 0.000 Not Reported Not Reported
04/08/2021 06:09 PM 64.22 45.14 15.98 66.56 26.60 14.0 Not Reported 14.54 NW 12.08 NW 15.66 NW No 0.000 No Precipitation 03/23/2021 12:14 AM 03/23/2021 12:25 AM 0.000 0.000 0.000 0.000 0.000 Not Reported Not Reported
04/08/2021 06:14 PM 64.40 45.32 16.70 66.56 26.60 15.0 Not Reported 11.86 NW 14.99 NW 15.66 NW No 0.000 No Precipitation 03/23/2021 12:14 AM 03/23/2021 12:25 AM 0.000 0.000 0.000 0.000 0.000 Not Reported Not Reported
04/08/2021 06:19 PM 63.86 45.14 15.98 66.56 26.60 15.0 Not Reported 11.41 NW 10.07 NW 16.11 NW No 0.000 No Precipitation 03/23/2021 12:14 AM 03/23/2021 12:25 AM 0.000 0.000 0.000 0.000 0.000 Not Reported Not Reported
04/08/2021 06:24 PM 64.04 44.96 16.34 66.56 26.60 15.0 Not Reported 12.75 NW 11.86 NW 16.11 NW No 0.000 No Precipitation 03/23/2021 12:14 AM 03/23/2021 12:25 AM 0.000 0.000 0.000 0.000 0.000 Not Reported Not Reported
04/08/2021 06:29 PM 63.68 44.96 16.88 66.56 26.60 16.0 Not Reported 10.74 NW 9.40 NW 13.42 NW No 0.000 No Precipitation 03/23/2021 12:14 AM 03/23/2021 12:25 AM 0.000 0.000 0.000 0.000 0.000 Not Reported Not Reported
04/08/2021 06:34 PM 63.14 44.78 16.52 66.56 26.60 15.0 Not Reported 9.84 NW 11.86 NW 11.86 NW No 0.000 No Precipitation 03/23/2021 12:14 AM 03/23/2021 12:25 AM 0.000 0.000 0.000 0.000 0.000 Not Reported Not Reported
04/08/2021 06:39 PM 62.96 44.78 16.34 66.56 26.60 16.0 Not Reported 11.63 NW 12.75 NW 12.75 NW No 0.000 No Precipitation 03/23/2021 12:14 AM 03/23/2021 12:25 AM 0.000 0.000 0.000 0.000 0.000 Not Reported Not Reported
04/08/2021 06:44 PM 62.96 44.78 18.32 66.56 26.60 17.0 Not Reported 10.51 NW 10.29 NW 12.75 NW No 0.000 No Precipitation 03/23/2021 12:14 AM 03/23/2021 12:25 AM 0.000 0.000 0.000 0.000 0.000 Not Reported Not Reported
04/08/2021 06:49 PM 61.88 44.78 19.94 66.56 26.60 19.0 Not Reported 8.50 NW 7.16 NW 12.53 NW No 0.000 No Precipitation 03/23/2021 12:14 AM 03/23/2021 12:25 AM 0.000 0.000 0.000 0.000 0.000 Not Reported Not Reported
04/08/2021 06:54 PM 62.24 44.42 17.78 66.56 26.60 17.0 Not Reported 10.29 NW 9.62 NW 11.18 NW No 0.000 No Precipitation 03/23/2021 12:14 AM 03/23/2021 12:25 AM 0.000 0.000 0.000 0.000 0.000 Not Reported Not Reported
04/08/2021 06:59 PM 61.70 44.06 16.88 66.56 26.60 17.0 Not Reported 9.17 NW 8.28 NW 10.96 NW No 0.000 No Precipitation 03/23/2021 12:14 AM 03/23/2021 12:25 AM 0.000 0.000 0.000 0.000 0.000 Not Reported Not Reported
04/08/2021 07:04 PM 59.18 43.52 22.10 66.56 26.60 22.0 Not Reported 5.14 NW 4.25 W 9.40 NW No 0.000 No Precipitation 03/23/2021 12:14 AM 03/23/2021 12:25 AM 0.000 0.000 0.000 0.000 0.000 Not Reported Not Reported
04/08/2021 07:14 PM 55.22 41.90 22.10 66.56 26.60 27.0 Not Reported 7.61 SW 8.72 SW 8.72 SW No 0.000 No Precipitation 03/23/2021 12:14 AM 03/23/2021 12:25 AM 0.000 0.000 0.000 0.000 0.000 Not Reported Not Reported
04/08/2021 07:19 PM 54.32 41.18 21.74 66.56 26.60 27.0 Not Reported 8.72 SW 7.83 W 8.72 SW No 0.000 No Precipitation 03/23/2021 12:14 AM 03/23/2021 12:25 AM 0.000 0.000 0.000 0.000 0.000 Not Reported Not Reported
04/08/2021 07:24 PM 54.14 41.18 21.02 66.56 26.60 26.0 Not Reported 8.05 SW 6.93 W 8.72 SW No 0.000 No Precipitation 03/23/2021 12:14 AM 03/23/2021 12:25 AM 0.000 0.000 0.000 0.000 0.000 Not Reported Not Reported
04/08/2021 07:29 PM 53.96 41.00 21.92 66.56 26.60 28.0 Not Reported 5.37 W 8.28 SW 8.72 SW No 0.000 No Precipitation 03/23/2021 12:14 AM 03/23/2021 12:25 AM 0.000 0.000 0.000 0.000 0.000 Not Reported Not Reported
04/08/2021 07:34 PM 53.42 41.00 22.64 66.56 26.60 29.0 Not Reported 9.17 SW 10.07 SW 10.29 SW No 0.000 No Precipitation 03/23/2021 12:14 AM 03/23/2021 12:25 AM 0.000 0.000 0.000 0.000 0.000 Not Reported Not Reported
04/08/2021 07:39 PM 52.88 40.64 22.46 66.56 26.60 30.0 Not Reported 8.72 SW 9.17 SW 10.29 SW No 0.000 No Precipitation 03/23/2021 12:14 AM 03/23/2021 12:25 AM 0.000 0.000 0.000 0.000 0.000 Not Reported Not Reported
04/08/2021 07:44 PM 52.52 40.46 22.28 66.56 26.60 30.0 Not Reported 9.17 W 8.95 SW 10.29 SW No 0.000 No Precipitation 03/23/2021 12:14 AM 03/23/2021 12:25 AM 0.000 0.000 0.000 0.000 0.000 Not Reported Not Reported
04/08/2021 07:49 PM 52.16 40.28 22.46 66.56 26.60 30.0 Not Reported 7.38 SW 7.61 SW 9.62 SW No 0.000 No Precipitation 03/23/2021 12:14 AM 03/23/2021 12:25 AM 0.000 0.000 0.000 0.000 0.000 Not Reported Not Reported
04/08/2021 07:54 PM 52.16 40.28 22.46 66.56 26.60 30.0 Not Reported 7.61 SW 6.26 SW 9.62 SW No 0.000 No Precipitation 03/23/2021 12:14 AM 03/23/2021 12:25 AM 0.000 0.000 0.000 0.000 0.000 Not Reported Not Reported
04/08/2021 07:59 PM 51.98 39.92 21.74 66.56 26.60 30.0 Not Reported 7.61 SW 7.16 SW 9.17 SW No 0.000 No Precipitation 03/23/2021 12:14 AM 03/23/2021 12:25 AM 0.000 0.000 0.000 0.000 0.000 Not Reported Not Reported
04/08/2021 08:04 PM 52.34 40.46 21.38 66.56 26.60 28.0 Not Reported 8.95 W 7.16 W 9.62 W No 0.000 No Precipitation 03/23/2021 12:14 AM 03/23/2021 12:25 AM 0.000 0.000 0.000 0.000 0.000 Not Reported Not Reported
04/08/2021 08:09 PM 53.42 40.64 21.38 66.56 26.60 28.0 Not Reported 7.83 W 4.47 W 9.62 W No 0.000 No Precipitation 03/23/2021 12:14 AM 03/23/2021 12:25 AM 0.000 0.000 0.000 0.000 0.000 Not Reported Not Reported
04/08/2021 08:14 PM 53.60 40.82 21.02 66.56 26.60 27.0 Not Reported 1.12 NW 1.79 NE 8.95 W No 0.000 No Precipitation 03/23/2021 12:14 AM 03/23/2021 12:25 AM 0.000 0.000 0.000 0.000 0.000 Not Reported Not Reported
04/08/2021 08:19 PM 53.78 40.46 20.66 66.56 26.60 26.0 Not Reported 3.58 NE 4.03 NE 4.70 NE No 0.000 No Precipitation 03/23/2021 12:14 AM 03/23/2021 12:25 AM 0.000 0.000 0.000 0.000 0.000 Not Reported Not Reported
04/08/2021 08:24 PM 52.70 39.92 20.12 66.56 26.60 27.0 Not Reported 4.92 N 5.37 N 6.71 N No 0.000 No Precipitation 03/23/2021 12:14 AM 03/23/2021 12:25 AM 0.000 0.000 0.000 0.000 0.000 Not Reported Not Reported
04/08/2021 08:29 PM 52.16 40.10 21.02 66.56 26.60 28.0 Not Reported 6.26 NW 9.84 NW 12.08 NW No 0.000 No Precipitation 03/23/2021 12:14 AM 03/23/2021 12:25 AM 0.000 0.000 0.000 0.000 0.000 Not Reported Not Reported
04/08/2021 08:34 PM 51.80 40.28 23.00 66.56 26.60 31.0 Not Reported 3.58 NW 7.61 W 12.08 NW No 0.000 No Precipitation 03/23/2021 12:14 AM 03/23/2021 12:25 AM 0.000 0.000 0.000 0.000 0.000 Not Reported Not Reported
04/08/2021 08:39 PM 54.32 41.00 20.30 66.56 26.60 26.0 Not Reported 4.70 NW 4.92 N 8.28 NW No 0.000 No Precipitation 03/23/2021 12:14 AM 03/23/2021 12:25 AM 0.000 0.000 0.000 0.000 0.000 Not Reported Not Reported
04/08/2021 08:44 PM 53.42 40.46 20.30 66.56 26.60 26.0 Not Reported 6.71 N 7.61 NW 8.28 NW No 0.000 No Precipitation 03/23/2021 12:14 AM 03/23/2021 12:25 AM 0.000 0.000 0.000 0.000 0.000 Not Reported Not Reported
04/08/2021 08:49 PM 52.88 40.28 21.56 66.56 26.60 29.0 Not Reported 6.71 NW 6.04 NW 8.05 NW No 0.000 No Precipitation 03/23/2021 12:14 AM 03/23/2021 12:25 AM 0.000 0.000 0.000 0.000 0.000 Not Reported Not Reported
04/08/2021 08:54 PM 51.44 39.92 22.46 66.56 26.60 31.0 Not Reported 6.26 NW 7.16 NW 8.05 NW No 0.000 No Precipitation 03/23/2021 12:14 AM 03/23/2021 12:25 AM 0.000 0.000 0.000 0.000 0.000 Not Reported Not Reported
04/08/2021 08:59 PM 50.90 39.92 23.00 66.56 26.60 32.0 Not Reported 4.47 NW 4.25 NW 8.05 NW No 0.000 No Precipitation 03/23/2021 12:14 AM 03/23/2021 12:25 AM 0.000 0.000 0.000 0.000 0.000 Not Reported Not Reported
04/08/2021 09:04 PM 51.62 40.10 22.64 66.56 26.60 30.0 Not Reported 3.58 W 4.92 NW 8.05 NW No 0.000 No Precipitation 03/23/2021 12:14 AM 03/23/2021 12:25 AM 0.000 0.000 0.000 0.000 0.000 Not Reported Not Reported
04/08/2021 09:09 PM 52.16 40.28 22.46 66.56 26.60 31.0 Not Reported 6.26 W 6.49 NW 7.61 W No 0.000 No Precipitation 03/23/2021 12:14 AM 03/23/2021 12:25 AM 0.000 0.000 0.000 0.000 0.000 Not Reported Not Reported
04/08/2021 09:14 PM 52.70 40.46 22.28 66.56 26.60 30.0 Not Reported 5.37 NW 3.58 NW 7.61 W No 0.000 No Precipitation 03/23/2021 12:14 AM 03/23/2021 12:25 AM 0.000 0.000 0.000 0.000 0.000 Not Reported Not Reported
04/08/2021 09:19 PM 51.98 40.28 22.64 66.56 26.60 31.0 Not Reported 5.37 NW 5.82 NW 7.38 NW No 0.000 No Precipitation 03/23/2021 12:14 AM 03/23/2021 12:25 AM 0.000 0.000 0.000 0.000 0.000 Not Reported Not Reported
04/08/2021 09:24 PM 51.44 39.74 21.38 66.56 26.60 30.0 Not Reported 6.93 NW 7.83 NW 8.05 NW No 0.000 No Precipitation 03/23/2021 12:14 AM 03/23/2021 12:25 AM 0.000 0.000 0.000 0.000 0.000 Not Reported Not Reported
04/08/2021 09:29 PM 49.82 38.84 21.02 66.56 26.60 31.0 Not Reported 6.26 NW 5.14 NW 8.05 NW No 0.000 No Precipitation 03/23/2021 12:14 AM 03/23/2021 12:25 AM 0.000 0.000 0.000 0.000 0.000 Not Reported Not Reported
04/08/2021 09:34 PM 49.46 38.84 23.54 66.56 26.60 36.0 Not Reported 6.04 NW 6.04 NW 7.61 NW No 0.000 No Precipitation 03/23/2021 12:14 AM 03/23/2021 12:25 AM 0.000 0.000 0.000 0.000 0.000 Not Reported Not Reported
04/08/2021 09:39 PM 49.28 38.48 21.38 66.56 26.60 33.0 Not Reported 4.70 NW 4.92 NW 6.26 NW No 0.000 No Precipitation 03/23/2021 12:14 AM 03/23/2021 12:25 AM 0.000 0.000 0.000 0.000 0.000 Not Reported Not Reported
04/08/2021 09:44 PM 48.56 39.02 22.64 66.56 26.60 37.0 Not Reported 5.14 NW 4.70 NW 6.04 NW No 0.000 No Precipitation 03/23/2021 12:14 AM 03/23/2021 12:25 AM 0.000 0.000 0.000 0.000 0.000 Not Reported Not Reported
04/08/2021 09:49 PM 46.76 37.22 22.82 66.56 26.60 37.0 Not Reported 3.36 NW 2.91 NW 6.04 NW No 0.000 No Precipitation 03/23/2021 12:14 AM 03/23/2021 12:25 AM 0.000 0.000 0.000 0.000 0.000 Not Reported Not Reported
04/08/2021 09:54 PM 43.16 35.06 20.48 66.56 26.60 39.0 Not Reported 0.89 SW 0.00 S 5.14 NW No 0.000 No Precipitation 03/23/2021 12:14 AM 03/23/2021 12:25 AM 0.000 0.000 0.000 0.000 0.000 Not Reported Not Reported
04/08/2021 09:59 PM 41.54 33.26 19.76 66.56 26.60 42.0 Not Reported 1.34 S 1.79 S 1.79 S No 0.000 No Precipitation 03/23/2021 12:14 AM 03/23/2021 12:25 AM 0.000 0.000 0.000 0.000 0.000 Not Reported Not Reported
04/08/2021 10:04 PM 37.76 32.00 21.20 66.56 26.60 50.0 Not Reported 0.45 S 1.79 SE 1.79 S No 0.000 No Precipitation 03/23/2021 12:14 AM 03/23/2021 12:25 AM 0.000 0.000 0.000 0.000 0.000 Not Reported Not Reported
04/08/2021 10:09 PM 36.68 31.46 21.38 66.56 26.60 53.0 Not Reported 2.68 SE 3.36 SE 3.36 SE No 0.000 No Precipitation 03/23/2021 12:14 AM 03/23/2021 12:25 AM 0.000 0.000 0.000 0.000 0.000 Not Reported Not Reported
04/08/2021 10:14 PM 37.22 31.82 21.56 66.56 26.60 51.0 Not Reported 3.13 SE 4.03 SE 4.03 SE No 0.000 No Precipitation 03/23/2021 12:14 AM 03/23/2021 12:25 AM 0.000 0.000 0.000 0.000 0.000 Not Reported Not Reported
04/08/2021 10:19 PM 35.78 30.92 21.20 66.56 26.60 55.0 Not Reported 5.14 SE 6.04 S 6.04 S No 0.000 No Precipitation 03/23/2021 12:14 AM 03/23/2021 12:25 AM 0.000 0.000 0.000 0.000 0.000 Not Reported Not Reported
04/08/2021 10:24 PM 37.22 32.00 22.10 66.56 26.60 53.0 Not Reported 5.82 SE 5.59 S 6.04 S No 0.000 No Precipitation 03/23/2021 12:14 AM 03/23/2021 12:25 AM 0.000 0.000 0.000 0.000 0.000 Not Reported Not Reported
04/08/2021 10:29 PM 37.58 32.00 22.10 66.56 26.60 53.0 Not Reported 5.37 S 6.04 S 6.04 S No 0.000 No Precipitation 03/23/2021 12:14 AM 03/23/2021 12:25 AM 0.000 0.000 0.000 0.000 0.000 Not Reported Not Reported
04/08/2021 10:34 PM 37.94 32.36 22.10 66.56 26.60 51.0 Not Reported 5.14 S 5.59 S 6.04 S No 0.000 No Precipitation 03/23/2021 12:14 AM 03/23/2021 12:25 AM 0.000 0.000 0.000 0.000 0.000 Not Reported Not Reported
04/08/2021 10:39 PM 38.12 32.18 21.74 66.56 26.60 51.0 Not Reported 4.92 S 4.70 S 6.04 S No 0.000 No Precipitation 03/23/2021 12:14 AM 03/23/2021 12:25 AM 0.000 0.000 0.000 0.000 0.000 Not Reported Not Reported
04/08/2021 10:44 PM 38.48 32.36 21.38 66.56 26.60 48.0 Not Reported 3.36 S 2.68 S 6.04 S No 0.000 No Precipitation 03/23/2021 12:14 AM 03/23/2021 12:25 AM 0.000 0.000 0.000 0.000 0.000 Not Reported Not Reported
04/08/2021 10:54 PM 39.92 33.26 21.74 66.56 26.60 47.0 Not Reported 1.57 SE 2.24 S 3.36 S No 0.000 No Precipitation 03/23/2021 12:14 AM 03/23/2021 12:25 AM 0.000 0.000 0.000 0.000 0.000 Not Reported Not Reported
04/08/2021 11:04 PM 38.30 32.36 22.82 66.56 26.60 52.0 Not Reported 1.79 SE 2.24 E 2.68 SE No 0.000 No Precipitation 03/23/2021 12:14 AM 03/23/2021 12:25 AM 0.000 0.000 0.000 0.000 0.000 Not Reported Not Reported
04/08/2021 11:09 PM 38.30 32.54 22.28 66.56 26.60 51.0 Not Reported 1.12 NE 0.89 NE 2.68 SE No 0.000 No Precipitation 03/23/2021 12:14 AM 03/23/2021 12:25 AM 0.000 0.000 0.000 0.000 0.000 Not Reported Not Reported
04/08/2021 11:14 PM 37.40 32.18 22.28 66.56 26.60 52.0 Not Reported 1.12 NE 2.01 NE 2.24 E No 0.000 No Precipitation 03/23/2021 12:14 AM 03/23/2021 12:25 AM 0.000 0.000 0.000 0.000 0.000 Not Reported Not Reported
04/08/2021 11:19 PM 39.20 32.90 22.10 66.56 26.60 49.0 Not Reported 2.01 NE 2.24 N 2.24 N No 0.000 No Precipitation 03/23/2021 12:14 AM 03/23/2021 12:25 AM 0.000 0.000 0.000 0.000 0.000 Not Reported Not Reported
04/08/2021 11:24 PM 39.56 33.08 21.92 66.56 26.60 48.0 Not Reported 1.34 N 2.24 W 2.24 N No 0.000 No Precipitation 03/23/2021 12:14 AM 03/23/2021 12:25 AM 0.000 0.000 0.000 0.000 0.000 Not Reported Not Reported
04/08/2021 11:29 PM 39.56 32.72 20.48 66.56 26.60 45.0 Not Reported 4.47 W 6.04 SW 6.04 W No 0.000 No Precipitation 03/23/2021 12:14 AM 03/23/2021 12:25 AM 0.000 0.000 0.000 0.000 0.000 Not Reported Not Reported
04/08/2021 11:39 PM 38.66 32.36 21.02 66.56 26.60 47.0 Not Reported 3.36 SW 2.24 SW 6.26 W No 0.000 No Precipitation 03/23/2021 12:14 AM 03/23/2021 12:25 AM 0.000 0.000 0.000 0.000 0.000 Not Reported Not Reported
04/08/2021 11:44 PM 36.50 30.74 20.66 66.56 26.60 53.0 Not Reported 2.91 S 3.80 S 5.14 W No 0.000 No Precipitation 03/23/2021 12:14 AM 03/23/2021 12:25 AM 0.000 0.000 0.000 0.000 0.000 Not Reported Not Reported
04/08/2021 11:49 PM 34.16 29.66 20.84 66.56 26.60 58.0 Not Reported 5.14 S 5.82 SE 5.82 SE No 0.000 No Precipitation 03/23/2021 12:14 AM 03/23/2021 12:25 AM 0.000 0.000 0.000 0.000 0.000 Not Reported Not Reported
04/08/2021 11:54 PM 33.26 28.76 20.12 66.56 26.60 57.0 Not Reported 4.92 SE 4.70 SE 5.82 SE No 0.000 No Precipitation 03/23/2021 12:14 AM 03/23/2021 12:25 AM 0.000 0.000 0.000 0.000 0.000 Not Reported Not Reported
04/08/2021 11:59 PM 32.00 27.86 19.76 66.56 26.60 60.0 Not Reported 4.47 SE 4.70 S 5.59 SE No 0.000 No Precipitation 03/23/2021 12:14 AM 03/23/2021 12:25 AM 0.000 0.000 0.000 0.000 0.000 Not Reported Not Reported